createdAt,value
2018-07-14T00:02:26.258Z,90.90
2018-07-14T00:04:53.898Z,91.00
2018-07-14T00:07:21.559Z,91.10
2018-07-14T00:09:49.228Z,91.50
2018-07-14T00:12:16.860Z,90.90
2018-07-14T00:14:44.443Z,91.10
2018-07-14T00:17:12.156Z,90.80
2018-07-14T00:19:39.798Z,90.70
2018-07-14T00:22:07.669Z,90.90
2018-07-14T00:24:35.364Z,91.10
2018-07-14T00:27:03.010Z,91.00
2018-07-14T00:29:30.615Z,91.20
2018-07-14T00:31:58.253Z,91.70
2018-07-14T00:36:53.430Z,91.40
2018-07-14T00:41:48.573Z,92.00
2018-07-14T00:44:16.178Z,92.10
2018-07-14T00:46:43.819Z,92.50
2018-07-14T00:49:11.465Z,92.70
2018-07-14T00:54:06.620Z,92.60
2018-07-14T00:56:34.246Z,92.40
2018-07-14T01:01:29.374Z,92.60
2018-07-14T01:03:57.037Z,92.70
2018-07-14T01:06:24.640Z,92.60
2018-07-14T01:08:52.215Z,92.70
2018-07-14T01:13:47.356Z,92.70
2018-07-14T01:16:14.980Z,93.00
2018-07-14T01:18:42.566Z,92.80
2018-07-14T01:26:06.064Z,93.20
2018-07-14T01:28:33.625Z,93.00
2018-07-14T01:31:01.254Z,92.90
2018-07-14T01:35:56.333Z,93.30
2018-07-14T01:38:23.885Z,93.20
2018-07-14T01:40:51.526Z,93.40
2018-07-14T01:43:19.136Z,93.50
2018-07-14T01:48:14.280Z,92.50
2018-07-14T01:50:41.896Z,92.50
2018-07-14T01:53:09.521Z,93.00
2018-07-14T01:55:37.143Z,93.20
2018-07-14T01:58:05.558Z,93.30
2018-07-14T02:03:00.695Z,93.50
2018-07-14T02:07:55.774Z,94.00
2018-07-14T02:10:23.374Z,93.50
2018-07-14T02:17:45.980Z,94.10
2018-07-14T02:22:41.092Z,94.20
2018-07-14T02:25:08.699Z,94.00
2018-07-14T02:27:36.325Z,94.20
2018-07-14T02:30:03.986Z,94.10
2018-07-14T02:34:59.131Z,94.40
2018-07-14T02:39:54.266Z,94.30
2018-07-14T02:44:49.354Z,94.20
2018-07-14T02:47:17.014Z,94.30
2018-07-14T02:52:12.121Z,94.00
2018-07-14T02:54:39.735Z,94.40
2018-07-14T02:57:07.358Z,94.10
2018-07-14T02:59:34.960Z,94.20
2018-07-14T03:02:02.576Z,94.20
2018-07-14T03:06:57.714Z,94.50
2018-07-14T03:09:25.326Z,94.70
2018-07-14T03:11:52.926Z,94.80
2018-07-14T03:14:20.510Z,94.50
2018-07-14T03:16:48.125Z,94.70
2018-07-14T03:19:15.776Z,94.00
2018-07-14T03:21:44.207Z,94.00
2018-07-14T03:26:39.405Z,94.40
2018-07-14T03:29:07.025Z,94.60
2018-07-14T03:36:29.640Z,94.70
2018-07-14T03:38:57.240Z,94.90
2018-07-14T03:41:24.871Z,94.90
2018-07-14T03:43:52.442Z,95.20
2018-07-14T03:46:20.067Z,95.60
2018-07-14T03:48:47.706Z,95.90
2018-07-14T03:51:15.389Z,96.20
2018-07-14T03:53:42.990Z,95.70
2018-07-14T03:56:10.654Z,96.00
2018-07-14T03:58:38.291Z,95.90
2018-07-14T04:03:33.463Z,95.30
2018-07-14T04:06:01.042Z,95.50
2018-07-14T04:25:41.114Z,95.30
2018-07-14T04:28:08.735Z,95.70
2018-07-14T04:37:59.046Z,95.90
2018-07-14T04:40:26.737Z,95.80
2018-07-14T04:42:54.576Z,95.90
2018-07-14T04:47:49.711Z,94.60
2018-07-14T04:50:17.315Z,94.30
2018-07-14T04:52:44.907Z,93.60
2018-07-14T04:55:12.537Z,94.10
2018-07-14T05:00:07.659Z,93.40
2018-07-14T05:02:35.315Z,93.40
2018-07-14T05:07:30.506Z,93.30
2018-07-14T05:12:25.641Z,93.20
2018-07-14T05:14:53.321Z,93.40
2018-07-14T05:17:20.976Z,93.80
2018-07-14T05:19:48.598Z,93.80
2018-07-14T05:24:43.840Z,94.00
2018-07-14T05:32:06.710Z,93.30
2018-07-14T05:34:34.322Z,93.20
2018-07-14T05:37:02.013Z,93.70
2018-07-14T05:39:29.620Z,94.00
2018-07-14T05:41:57.276Z,93.90
2018-07-14T05:44:24.872Z,93.80
2018-07-14T05:49:20.080Z,93.60
2018-07-14T05:51:47.680Z,93.80
2018-07-14T05:56:42.934Z,93.50
2018-07-14T05:59:10.605Z,93.90
2018-07-14T06:01:38.287Z,93.20
2018-07-14T06:04:05.950Z,93.10
2018-07-14T06:06:33.646Z,93.10
2018-07-14T06:09:01.315Z,93.00
2018-07-14T06:13:56.561Z,93.20
2018-07-14T06:18:51.978Z,92.70
2018-07-14T06:21:19.721Z,92.70
2018-07-14T06:23:47.390Z,92.50
2018-07-14T06:26:15.046Z,92.60
2018-07-14T06:28:42.753Z,92.20
2018-07-14T06:31:10.427Z,92.00
2018-07-14T06:33:38.149Z,91.50
2018-07-14T06:36:05.830Z,91.10
2018-07-14T06:38:33.547Z,89.90
2018-07-14T06:41:01.208Z,89.80
2018-07-14T06:43:28.865Z,87.80
2018-07-14T06:45:56.604Z,86.90
2018-07-14T06:48:24.264Z,85.80
2018-07-14T06:50:51.957Z,83.70
2018-07-14T06:53:19.595Z,80.70
2018-07-14T06:55:47.242Z,80.20
2018-07-14T06:58:14.994Z,77.60
2018-07-14T07:00:42.695Z,78.50
2018-07-14T07:03:10.418Z,74.40
2018-07-14T07:05:38.111Z,71.00
2018-07-14T07:08:06.051Z,70.90
2018-07-14T07:10:33.751Z,70.80
2018-07-14T07:13:01.471Z,69.80
2018-07-14T07:15:29.127Z,68.70
2018-07-14T07:17:56.834Z,67.30
2018-07-14T07:20:24.538Z,67.20
2018-07-14T07:25:19.766Z,64.10
2018-07-14T07:35:09.997Z,62.00
2018-07-14T07:40:05.271Z,59.80
2018-07-14T07:42:32.972Z,59.30
2018-07-14T07:45:00.633Z,58.20
2018-07-14T07:47:28.310Z,58.60
2018-07-14T07:54:50.987Z,59.40
2018-07-14T07:59:46.202Z,59.50
2018-07-14T08:04:41.632Z,58.40
2018-07-14T08:07:09.321Z,59.10
2018-07-14T08:09:36.956Z,58.60
2018-07-14T08:12:04.717Z,58.80
2018-07-14T08:16:59.956Z,61.80
2018-07-14T08:21:55.225Z,59.40
2018-07-14T08:26:50.540Z,55.50
2018-07-14T08:29:18.150Z,54.60
2018-07-14T08:31:45.803Z,54.00
2018-07-14T08:34:13.472Z,56.50
2018-07-14T08:36:41.372Z,56.50
2018-07-14T08:46:32.123Z,57.00
2018-07-14T08:48:59.822Z,55.90
2018-07-14T08:51:27.772Z,55.10
2018-07-14T09:06:13.199Z,53.70
2018-07-14T09:08:40.886Z,57.40
2018-07-14T09:11:08.522Z,54.00
2018-07-14T09:18:32.168Z,51.30
2018-07-14T09:20:59.835Z,54.40
2018-07-14T09:28:22.943Z,52.00
2018-07-14T09:30:50.664Z,53.90
2018-07-14T09:38:13.439Z,56.20
2018-07-14T09:40:41.155Z,57.10
2018-07-14T09:45:36.371Z,60.40
2018-07-14T09:48:04.063Z,61.80
2018-07-14T09:50:31.809Z,62.00
2018-07-14T09:52:59.462Z,61.80
2018-07-14T09:55:27.114Z,59.30
2018-07-14T10:00:27.765Z,56.90
2018-07-14T10:07:50.662Z,54.00
2018-07-14T10:12:53.120Z,51.30
2018-07-14T10:15:26.688Z,53.00
2018-07-14T10:18:04.547Z,53.80
2018-07-14T10:20:35.803Z,52.40
2018-07-14T10:23:07.616Z,52.60
2018-07-14T10:25:35.274Z,51.70
2018-07-14T10:28:02.901Z,50.90
2018-07-14T10:30:30.518Z,50.30
2018-07-14T10:35:25.899Z,47.80
2018-07-14T10:37:53.567Z,43.80
2018-07-14T10:55:50.528Z,45.30
2018-07-14T10:58:18.233Z,43.70
2018-07-14T11:00:46.059Z,43.70
2018-07-14T11:05:41.385Z,41.60
2018-07-14T11:08:09.207Z,42.80
2018-07-14T11:10:36.979Z,44.10
2018-07-14T11:13:04.705Z,43.30
2018-07-14T11:18:00.008Z,44.60
2018-07-14T11:20:27.739Z,43.20
2018-07-14T11:22:55.494Z,43.60
2018-07-14T11:25:23.219Z,47.30
2018-07-14T11:27:50.908Z,41.80
2018-07-14T11:30:18.621Z,40.50
2018-07-14T11:35:13.913Z,38.80
2018-07-14T11:37:41.660Z,41.40
2018-07-14T11:40:09.379Z,41.00
2018-07-14T11:42:37.045Z,37.00
2018-07-14T11:45:04.786Z,35.90
2018-07-14T11:47:32.629Z,41.90
2018-07-14T11:52:27.810Z,43.60
2018-07-14T11:57:23.046Z,41.80
2018-07-14T12:02:27.851Z,39.20
2018-07-14T12:04:55.593Z,40.00
2018-07-14T12:12:18.428Z,42.00
2018-07-14T12:14:46.053Z,45.60
2018-07-14T12:19:41.222Z,47.30
2018-07-14T12:27:03.925Z,49.40
2018-07-14T12:29:42.995Z,49.40
2018-07-14T12:32:23.484Z,50.10
2018-07-14T12:35:00.595Z,51.50
2018-07-14T12:37:39.406Z,46.40
2018-07-14T12:40:07.043Z,45.90
2018-07-14T12:42:42.166Z,48.00
2018-07-14T12:45:10.722Z,48.50
2018-07-14T12:47:38.389Z,46.20
2018-07-14T12:50:06.042Z,46.00
2018-07-14T12:52:33.684Z,45.90
2018-07-14T12:55:01.384Z,46.80
2018-07-14T12:57:29.112Z,45.50
2018-07-14T12:59:56.848Z,45.90
2018-07-14T13:02:24.595Z,45.60
2018-07-14T13:04:52.232Z,44.70
2018-07-14T13:09:47.423Z,37.80
2018-07-14T13:12:15.152Z,36.40
2018-07-14T13:14:42.774Z,39.40
2018-07-14T13:17:11.144Z,39.90
2018-07-14T13:19:39.664Z,39.60
2018-07-14T13:22:07.362Z,40.20
2018-07-14T13:24:35.770Z,41.30
2018-07-14T13:27:04.397Z,39.70
2018-07-14T13:29:33.103Z,40.40
2018-07-14T13:32:01.498Z,40.00
2018-07-14T13:34:29.879Z,40.00
2018-07-14T13:36:57.550Z,38.60
2018-07-14T13:39:25.218Z,40.20
2018-07-14T13:44:21.599Z,37.50
2018-07-14T13:46:49.317Z,35.70
2018-07-14T13:51:44.534Z,35.30
2018-07-14T13:54:12.180Z,37.80
2018-07-14T13:56:39.845Z,36.40
2018-07-14T13:59:09.914Z,36.30
2018-07-14T14:01:37.540Z,37.00
2018-07-14T14:04:05.280Z,36.90
2018-07-14T14:09:00.501Z,34.70
2018-07-14T14:16:23.193Z,32.70
2018-07-14T14:18:50.764Z,36.50
2018-07-14T14:23:45.913Z,39.60
2018-07-14T14:26:13.515Z,43.00
2018-07-14T14:28:41.166Z,45.00
2018-07-14T14:38:31.540Z,39.00
2018-07-14T14:40:59.179Z,38.00
2018-07-14T14:43:26.868Z,37.00
2018-07-14T14:45:54.509Z,36.40
2018-07-14T14:48:22.169Z,36.80
2018-07-14T14:50:49.828Z,37.40
2018-07-14T14:55:45.015Z,39.20
2018-07-14T14:58:12.764Z,37.30
2018-07-14T15:00:40.431Z,37.30
2018-07-14T15:05:36.501Z,37.50
2018-07-14T15:08:04.857Z,38.30
2018-07-14T15:10:32.548Z,39.60
2018-07-14T15:13:00.205Z,41.30
2018-07-14T15:15:28.008Z,40.10
2018-07-14T15:17:55.675Z,41.90
2018-07-14T15:20:23.359Z,41.70
2018-07-14T15:22:51.074Z,40.00
2018-07-14T15:25:18.808Z,42.50
2018-07-14T15:27:46.523Z,42.30
2018-07-14T15:30:14.248Z,45.60
2018-07-14T15:37:37.052Z,44.50
2018-07-14T15:42:32.221Z,45.00
2018-07-14T15:44:59.934Z,45.10
2018-07-14T15:47:27.529Z,47.60
2018-07-14T15:52:22.675Z,45.70
2018-07-14T15:54:50.292Z,46.50
2018-07-14T15:57:17.913Z,43.70
2018-07-14T16:04:40.604Z,44.60
2018-07-14T16:07:08.245Z,45.30
2018-07-14T16:09:35.857Z,46.50
2018-07-14T16:12:03.554Z,46.90
2018-07-14T16:16:58.704Z,45.00
2018-07-14T16:19:26.368Z,45.40
2018-07-14T16:21:54.038Z,45.30
2018-07-14T16:26:49.190Z,44.60
2018-07-14T16:29:16.850Z,44.90
2018-07-14T16:31:44.500Z,45.30
2018-07-14T16:34:12.255Z,45.80
2018-07-14T16:36:39.899Z,45.60
2018-07-14T16:39:08.483Z,45.50
2018-07-14T16:41:42.044Z,46.00
2018-07-14T16:44:09.688Z,46.10
2018-07-14T16:46:37.345Z,45.70
2018-07-14T16:49:05.230Z,45.10
2018-07-14T16:51:33.220Z,46.40
2018-07-14T16:54:15.638Z,45.60
2018-07-14T16:56:43.979Z,47.00
2018-07-14T16:59:11.670Z,47.20
2018-07-14T17:01:39.333Z,47.70
2018-07-14T17:04:07.069Z,47.40
2018-07-14T17:06:34.754Z,48.00
2018-07-14T17:09:02.570Z,47.40
2018-07-14T17:11:30.226Z,46.70
2018-07-14T17:13:57.896Z,47.60
2018-07-14T17:16:25.535Z,46.50
2018-07-14T17:18:53.169Z,48.00
2018-07-14T17:21:30.246Z,47.90
2018-07-14T17:23:57.910Z,47.70
2018-07-14T17:26:25.566Z,48.70
2018-07-14T17:28:53.181Z,51.10
2018-07-14T17:31:20.855Z,51.00
2018-07-14T17:33:48.510Z,51.60
2018-07-14T17:36:16.127Z,49.50
2018-07-14T17:38:43.765Z,49.70
2018-07-14T17:41:11.414Z,50.80
2018-07-14T17:43:39.070Z,51.30
2018-07-14T17:46:06.734Z,50.00
2018-07-14T17:48:34.334Z,50.50
2018-07-14T17:51:02.186Z,48.00
2018-07-14T17:53:29.841Z,47.50
2018-07-14T17:55:57.481Z,47.40
2018-07-14T17:58:25.081Z,49.30
2018-07-14T18:00:52.750Z,49.90
2018-07-14T18:03:20.547Z,50.20
2018-07-14T18:05:48.195Z,50.70
2018-07-14T18:08:15.834Z,51.90
2018-07-14T18:10:43.500Z,51.70
2018-07-14T18:13:11.114Z,52.80
2018-07-14T18:15:38.843Z,52.80
2018-07-14T18:18:06.605Z,54.40
2018-07-14T18:20:34.287Z,55.60
2018-07-14T18:23:01.982Z,56.40
2018-07-14T18:25:29.635Z,56.50
2018-07-14T18:30:24.837Z,57.40
2018-07-14T18:32:52.544Z,56.90
2018-07-14T18:35:20.201Z,57.00
2018-07-14T18:37:47.894Z,57.10
2018-07-14T18:42:43.074Z,57.30
2018-07-14T18:45:10.697Z,57.60
2018-07-14T18:47:38.417Z,58.40
2018-07-14T18:52:54.074Z,58.80
2018-07-14T18:55:33.326Z,59.00
2018-07-14T18:58:01.871Z,59.80
2018-07-14T19:00:29.570Z,61.00
2018-07-14T19:02:57.267Z,62.00
2018-07-14T19:05:24.941Z,62.70
2018-07-14T19:07:52.969Z,62.90
2018-07-14T19:10:20.611Z,64.30
2018-07-14T19:12:48.285Z,65.60
2018-07-14T19:17:43.526Z,66.60
2018-07-14T19:20:11.219Z,67.40
2018-07-14T19:22:38.920Z,68.50
2018-07-14T19:25:06.594Z,69.20
2018-07-14T19:39:52.161Z,71.90
2018-07-14T19:47:15.114Z,72.20
2018-07-14T19:49:42.820Z,73.40
2018-07-14T19:52:10.591Z,73.00
2018-07-14T19:54:38.251Z,73.60
2018-07-14T19:57:05.934Z,74.10
2018-07-14T20:04:29.730Z,74.60
2018-07-14T20:06:57.915Z,75.00
2018-07-14T20:09:26.604Z,75.30
2018-07-14T20:11:54.279Z,75.40
2018-07-14T20:14:22.060Z,77.50
2018-07-14T20:16:50.169Z,76.90
2018-07-14T20:19:18.570Z,76.70
2018-07-14T20:24:14.461Z,77.20
2018-07-14T20:26:42.656Z,78.30
2018-07-14T20:31:38.186Z,78.60
2018-07-14T20:34:06.252Z,78.70
2018-07-14T20:36:34.107Z,78.70
2018-07-14T20:39:02.141Z,79.10
2018-07-14T20:41:30.537Z,79.80
2018-07-14T20:43:58.156Z,80.20
2018-07-14T20:46:25.875Z,79.80
2018-07-14T20:48:53.561Z,79.00
2018-07-14T20:51:21.385Z,79.30
2018-07-14T20:58:44.281Z,81.30
2018-07-14T21:01:12.020Z,81.60
2018-07-14T21:03:39.915Z,82.10
2018-07-14T21:06:07.681Z,82.80
2018-07-14T21:08:35.364Z,83.60
2018-07-14T21:11:03.025Z,84.60
2018-07-14T21:13:30.742Z,84.60
2018-07-14T21:15:58.547Z,84.70
2018-07-14T21:18:26.270Z,84.10
2018-07-14T21:20:54.062Z,84.30
2018-07-14T21:30:45.607Z,86.00
2018-07-14T21:33:13.231Z,87.30
2018-07-14T21:38:09.000Z,87.50
2018-07-14T21:40:36.897Z,88.30
2018-07-14T21:43:04.661Z,89.00
2018-07-14T21:45:32.366Z,89.50
2018-07-14T21:50:27.577Z,90.10
2018-07-14T21:55:22.775Z,90.00
2018-07-14T21:57:50.395Z,90.10
2018-07-14T22:02:54.761Z,90.40
2018-07-14T22:05:22.462Z,90.40
2018-07-14T22:07:50.152Z,90.40
2018-07-14T22:10:18.013Z,90.50
2018-07-14T22:17:40.776Z,90.80
2018-07-14T22:20:09.135Z,91.10
2018-07-14T22:25:05.610Z,91.10
2018-07-14T22:27:33.245Z,91.00
2018-07-14T22:37:23.492Z,91.50
2018-07-14T22:39:51.105Z,91.70
2018-07-14T22:42:18.742Z,91.80
2018-07-14T22:44:46.387Z,91.60
2018-07-14T22:47:14.667Z,91.60
2018-07-14T22:49:42.379Z,91.90
2018-07-14T22:54:37.520Z,92.00
2018-07-14T22:57:05.192Z,92.00
2018-07-14T23:02:00.478Z,92.10
2018-07-14T23:17:30.297Z,92.50
2018-07-14T23:22:25.403Z,92.10
2018-07-14T23:24:53.427Z,91.80
2018-07-14T23:27:21.091Z,91.80
2018-07-14T23:29:48.695Z,91.30
2018-07-14T23:32:16.330Z,91.40
2018-07-14T23:34:43.970Z,91.20
2018-07-14T23:37:11.586Z,91.30
2018-07-14T23:39:39.905Z,91.50
2018-07-14T23:42:07.510Z,91.70
2018-07-14T23:44:35.337Z,92.20
2018-07-14T23:47:03.460Z,92.30
2018-07-14T23:49:31.093Z,92.60
2018-07-14T23:51:58.970Z,92.80
2018-07-14T23:54:26.610Z,93.10
2018-07-14T23:56:54.525Z,93.50
